Norwood, CO

2:11 AM MDT on August 28, 2014 (GMT -0600)
Cortez Municipal | Change Station
CLOSE
Current Station
Airport
Location: Cortez,
Elevation: 5915 ft
Nearby Weather Stations
Active Advisory: Special Statement

Elev 5915 ft 37.31 °N, 108.63 °W | Updated 18 minutes ago

Clear
Clear
47 °F
Feels Like 47 °F
N
4
Wind Variable Wind from ENE

Today
High -- | Low -- °F
--% Chance of Precip.
Yesterday
High -- | Low -- °F
Precip. -- in
6:39 AM 7:48 PM
Waxing Crescent, 7% visible
Pressure 30.14 in
Visibility 10.0 miles
Clouds Clear
Dew Point 46 °F
Humidity 97%
Rainfall 0.00 in
Snow Depth Not available.
UV 0 out of 12
Pollen 6.00 out of 12
Air Quality Not available.
Flu Activity Not available.
METAR KCEZ 280753Z AUTO 06003KT 10SM CLR 08/08 A3030 RMK AO2 SLP205 T00830078 $

More Conditions Fewer Conditions

Pressure 30.14 in
Visibility 10.0 miles
Clouds Clear
Dew Point 46 °F
Humidity 97%
Rainfall 0.00 in
Snow Depth Not available.
UV 0 out of 12
Pollen 6.00 out of 12
Air Quality Not available.
Flu Activity Not available.
METAR KCEZ 280753Z AUTO 06003KT 10SM CLR 08/08 A3030 RMK AO2 SLP205 T00830078 $

More Conditions Fewer Conditions

10-Day Weather Forecast

Almanac

Astronomy

Aug. 28, 2014 Rise Set
Actual Time 6:39 AM MDT 7:48 PM MDT
Civil Twilight 6:12 AM MDT 8:15 PM MDT
Nautical Twilight 5:39 AM MDT 8:48 PM MDT
Astronomical Twilight 5:05 AM MDT 9:21 PM MDT
Moon 9:31 AM MDT 9:17 PM MDT
Length of Visible Light 14h 03m
Length of Day
13h 09m
Tomorrow will be 2m 19s shorter.
Waxing Crescent, 7% of the Moon is Illuminated
Today
Waxing Crescent
Sep 2
First Quarter
Sep 8
Full
Sep 15
Last Quarter
Sep 24
New

Today's Extremes

State Highs State Lows

Community

WunderPhotos

Upload Photos

1,747,918 photos uploaded!

Nearby

Snow Depth

Station Depth Elevation
Lone Cone 2 in 9600 ft
Columbine Pass 1 in 9400 ft
El Diente Peak 1 in 10200 ft
Lizard Head Pass 1 in 10200 ft
Red Mountain Pass 0 in 11150 ft

Earthquake Activity

City Distance Mag. Time & Date
No recent earthquake activity has been reported nearby.
Minimum magnitude displayed is 2.5.

Coastal Water Temperatures

Place Temperature
No Stations Reporting

Nearby Weather Stations